x

Fowey Rock, Fl (fwyf1) Weather Station

11:00am - Thu 24th Jul 2014 All times are EDT. -4 hours from GMT.

  • Wind
    13mph, 14mph gusts
  • Sea Temp 86°f
  • Air Temp 85°f
  • Sea Pressure 1018.3mb
  • Fowey Rock, Fl
  • Fowey Rock, Fl

More Historic Weather Station data

Upgrade to MSW Pro to gain access to the past 30 days of data for over 8000 Wavebouys and Weather Stations around the globe.

Join Pro

Comparision Forecast

View Surf forecast
   
Thu 07/24 11:00am 13 14 mph 1018.3mb 86f 85f
10:00am 15 16 mph 1018.2mb 85f 85f
9:00am 13
mph
1018.1mb 85f 85f
8:00am 11 14 mph 1017.6mb 85f 85f
7:00am 10 11 mph 1017.3mb 85f 84f
6:00am 14
mph
1017mb 85f 84f
5:00am 11 13 mph 1016.7mb 86f 84f
4:00am 11 13 mph 1016.7mb 86f 84f
3:00am 15 16 mph 1016.6mb 86f 84f
2:00am 10 11 mph 1017.2mb 86f 84f
1:00am 14 15 mph 1017.6mb 86f 84f
12:00am 13 14 mph 1017.9mb 86f 84f
Wed 07/23 11:00pm 9 11 mph 1018.4mb 85f 85f
10:00pm 10 11 mph 1018.2mb 85f 84f
9:00pm 10 11 mph 1018.1mb 85f 85f
8:00pm 8
mph
1017.8mb 85f 85f
7:00pm 10
mph
1017.3mb 86f 85f
6:00pm 8 9 mph 1017.3mb 85f 85f
5:00pm 9
mph
1018.1mb 85f 86f
4:00pm 11 13 mph 1018mb 86f 86f
3:00pm 13 14 mph 1018.4mb 87f 87f
2:00pm 14 15 mph 1018.9mb 87f 87f
1:00pm 15 16 mph 1018.9mb 86f 87f
12:00pm 16 20 mph 1019mb 86f 87f
11:00am 18 21 mph 1019.1mb 86f 86f
10:00am 21 22 mph 1018.8mb 85f 85f
9:00am 16 17 mph 1018.8mb 85f 83f
8:00am 11 13 mph 1018.4mb 85f 83f
7:00am 11 13 mph 1017.9mb 85f 84f
6:00am 13 15 mph 1017.4mb 85f 84f
5:00am 14 15 mph 1017.3mb 86f 84f
4:00am 11 14 mph 1017.4mb 86f 84f
3:00am 14 15 mph 1017.5mb 85f 84f
2:00am 15 18 mph 1017.9mb 85f 84f
1:00am 13 14 mph 1018.7mb 85f 84f
12:00am 14 15 mph 1019mb 85f 84f
Tue 07/22 11:00pm 11 13 mph 1018.8mb 85f 83f
10:00pm 11 13 mph 1018.3mb 85f 83f
9:00pm 9 10 mph 1018.1mb 85f 84f
8:00pm 9 10 mph 1017.7mb 85f 84f
7:00pm 7 8 mph 1017.4mb 85f 84f
6:00pm 7
mph
1017.3mb 85f 84f
5:00pm 6
mph
1017.4mb 85f 84f
4:00pm 6
mph
1017.6mb 85f 85f
3:00pm 9 10 mph 1018.1mb 85f 85f
2:00pm 15 17 mph 1018.1mb 86f 84f
1:00pm 13 14 mph 1018.6mb 85f 84f
12:00pm 14 15 mph 1018.8mb 85f 83f
11:00am 11 13 mph 1018.8mb 85f 83f
10:00am 5 7 mph 1018.2mb 85f 81f
9:00am 16 17 mph 1017.8mb 84f 80f
8:00am 8 9 mph 1017.5mb 84f 84f
7:00am 8 9 mph 1017mb 84f 83f
6:00am 10 11 mph 1016.3mb 85f 83f
5:00am 13 14 mph 1015.8mb 85f 83f
4:00am 11 13 mph 1015.9mb 85f 83f
3:00am 14 15 mph 1016.3mb 85f 83f
2:00am 13 14 mph 1016.9mb 85f 83f
1:00am 11 13 mph 1017.5mb 87f 83f
12:00am 9 10 mph 1018.1mb 87f 83f
Mon 07/21 11:00pm 9 10 mph 1018.4mb 87f 82f
10:00pm 5
mph
1018.3mb 86f 82f
9:00pm 6 8 mph 1017.6mb 84f 82f
8:00pm 5
mph
1017mb 84f 82f
7:00pm 3 5 mph 1017.3mb 85f 82f
6:00pm 3 5 mph 1017mb 85f 81f
5:00pm 7 8 mph 1017.3mb 85f 81f
4:00pm 8 9 mph 1017.2mb 85f 82f
3:00pm 11 14 mph 1017.5mb 85f 81f
2:00pm 17 20 mph 1018.6mb 86f 80f
1:00pm 32 34 mph 1017.9mb 87f 82f
12:00pm 13 14 mph 1018mb 87f 87f
11:00am 11 13 mph 1018.3mb 87f 84f
10:00am 13 14 mph 1018.1mb 87f 84f
9:00am 15 16 mph 1017.8mb 86f 83f
8:00am 14 15 mph 1017.3mb 85f 83f
7:00am 14 15 mph 1016.6mb 86f 83f
6:00am 10 11 mph 1016.3mb 86f 83f
5:00am 10 11 mph 1016.2mb 87f 83f
4:00am 9 10 mph 1016.3mb 87f 83f
3:00am 8 9 mph 1016.8mb 88f 83f
2:00am 11 13 mph 1017.5mb 88f 83f
1:00am 10 11 mph 1017.9mb 88f 84f
12:00am 11 13 mph 1018.2mb 88f 83f
Sun 07/20 11:00pm 15 17 mph 1018.1mb 88f 84f
10:00pm 23 25 mph 1017.7mb 88f 83f
9:00pm 15 16 mph 1017.4mb 88f 85f
8:00pm 14
mph
1016.6mb 88f 85f
7:00pm 11 14 mph 1016.9mb 87f 85f
6:00pm 9 10 mph 1016.3mb 87f 85f
5:00pm 8
mph
1016.3mb 87f 85f